createdAt,value
2023-11-03T00:00:10.760Z,6.51
2023-11-03T00:02:38.386Z,6.74
2023-11-03T00:05:14.536Z,7.08
2023-11-03T00:07:42.289Z,6.55
2023-11-03T00:10:12.633Z,7.18
2023-11-03T00:12:39.909Z,7.32
2023-11-03T00:15:07.212Z,6.74
2023-11-03T00:17:33.767Z,7.53
2023-11-03T00:20:00.313Z,7.33
2023-11-03T00:22:28.838Z,6.84
2023-11-03T00:24:55.647Z,6.74
2023-11-03T00:27:22.454Z,6.93
2023-11-03T00:29:50.018Z,6.55
2023-11-03T00:32:17.831Z,7.01
2023-11-03T00:34:44.793Z,7.77
2023-11-03T00:37:11.373Z,7.38
2023-11-03T00:39:40.455Z,6.98
2023-11-03T00:42:07.978Z,7.59
2023-11-03T00:44:35.370Z,7.86
2023-11-03T00:47:02.222Z,7.14
2023-11-03T00:49:28.989Z,6.82
2023-11-03T00:51:56.089Z,6.75
2023-11-03T00:54:23.684Z,6.68
2023-11-03T00:56:50.283Z,7.19
2023-11-03T00:59:18.228Z,7.48
2023-11-03T01:01:47.142Z,7.30
2023-11-03T01:04:14.283Z,6.86
2023-11-03T01:06:42.268Z,6.11
2023-11-03T01:09:10.429Z,6.85
2023-11-03T01:11:38.330Z,6.85
2023-11-03T01:14:10.772Z,5.51
2023-11-03T01:16:43.174Z,7.13
2023-11-03T01:19:10.477Z,6.71
2023-11-03T01:21:40.645Z,6.66
2023-11-03T01:24:10.237Z,7.01
2023-11-03T01:26:38.193Z,6.30
2023-11-03T01:29:05.631Z,6.47
2023-11-03T01:31:32.804Z,6.57
2023-11-03T01:33:59.459Z,6.51
2023-11-03T01:36:25.952Z,6.91
2023-11-03T01:38:52.497Z,6.99
2023-11-03T01:41:19.254Z,7.30
2023-11-03T01:44:10.441Z,7.02
2023-11-03T01:46:39.254Z,6.44
2023-11-03T01:49:12.620Z,4.85
2023-11-03T01:51:40.832Z,5.71
2023-11-03T01:54:07.647Z,5.76
2023-11-03T01:56:36.628Z,4.97
2023-11-03T01:59:06.476Z,6.11
2023-11-03T02:01:33.560Z,5.72
2023-11-03T02:04:00.486Z,6.02
2023-11-03T02:06:27.188Z,5.41
2023-11-03T02:08:54.474Z,5.66
2023-11-03T02:11:29.533Z,5.86
2023-11-03T02:13:56.995Z,4.37
2023-11-03T02:16:25.263Z,5.66
2023-11-03T02:18:52.262Z,5.88
2023-11-03T02:21:18.983Z,5.39
2023-11-03T02:23:45.498Z,4.99
2023-11-03T02:26:12.037Z,5.15
2023-11-03T02:28:38.804Z,5.03
2023-11-03T02:31:05.360Z,5.82
2023-11-03T02:33:31.902Z,5.42
2023-11-03T02:35:58.650Z,5.52
2023-11-03T02:38:25.243Z,5.93
2023-11-03T02:40:56.900Z,6.04
2023-11-03T02:43:24.845Z,5.70
2023-11-03T02:45:51.821Z,5.22
2023-11-03T02:48:18.841Z,5.69
2023-11-03T02:50:45.821Z,5.75
2023-11-03T02:53:13.011Z,5.17
2023-11-03T02:55:39.693Z,6.38
2023-11-03T02:58:07.393Z,6.06
2023-11-03T03:00:36.823Z,6.27
2023-11-03T03:03:07.361Z,5.74
2023-11-03T03:05:40.027Z,6.03
2023-11-03T03:08:06.932Z,5.76
2023-11-03T03:10:34.745Z,5.76
2023-11-03T03:13:03.725Z,6.13
2023-11-03T03:15:31.131Z,5.36
2023-11-03T03:17:57.775Z,5.76
2023-11-03T03:20:24.406Z,5.77
2023-11-03T03:22:51.048Z,5.33
2023-11-03T03:25:17.611Z,4.79
2023-11-03T03:27:44.352Z,4.73
2023-11-03T03:30:11.497Z,5.20
2023-11-03T03:32:38.290Z,5.75
2023-11-03T03:35:05.296Z,5.77
2023-11-03T03:37:32.819Z,5.39
2023-11-03T03:39:59.932Z,5.24
2023-11-03T03:42:26.563Z,4.73
2023-11-03T03:44:53.213Z,4.70
2023-11-03T03:47:20.288Z,4.92
2023-11-03T03:49:46.764Z,4.56
2023-11-03T03:52:13.409Z,4.42
2023-11-03T03:54:40.068Z,4.05
2023-11-03T03:57:06.758Z,4.20
2023-11-03T03:59:33.423Z,4.21
2023-11-03T04:01:59.948Z,3.42
2023-11-03T04:04:26.744Z,3.48
2023-11-03T04:06:53.402Z,4.51
2023-11-03T04:09:19.963Z,3.52
2023-11-03T04:11:46.538Z,4.36
2023-11-03T04:14:13.036Z,4.68
2023-11-03T04:16:39.636Z,4.62
2023-11-03T04:19:06.908Z,4.25
2023-11-03T04:21:33.422Z,4.71
2023-11-03T04:24:00.162Z,4.73
2023-11-03T04:26:26.902Z,4.09
2023-11-03T04:28:53.448Z,4.13
2023-11-03T04:31:20.229Z,5.06
2023-11-03T04:33:46.986Z,3.82
2023-11-03T04:36:14.029Z,3.43
2023-11-03T04:38:40.731Z,3.62
2023-11-03T04:41:08.009Z,3.96
2023-11-03T04:43:37.038Z,4.80
2023-11-03T04:46:07.292Z,4.04
2023-11-03T04:48:33.915Z,4.85
2023-11-03T04:51:00.564Z,4.40
2023-11-03T04:53:27.063Z,4.79
2023-11-03T04:55:53.564Z,4.77
2023-11-03T04:58:21.570Z,4.34
2023-11-03T05:00:49.286Z,4.37
2023-11-03T05:03:16.625Z,4.50
2023-11-03T05:05:43.571Z,4.14
2023-11-03T05:08:10.518Z,4.75
2023-11-03T05:10:38.314Z,3.71
2023-11-03T05:13:05.841Z,4.96
2023-11-03T05:15:32.528Z,3.12
2023-11-03T05:18:00.123Z,4.61
2023-11-03T05:20:27.126Z,4.32
2023-11-03T05:22:53.759Z,4.04
2023-11-03T05:25:21.631Z,4.49
2023-11-03T05:27:48.600Z,4.92
2023-11-03T05:30:15.660Z,4.84
2023-11-03T05:32:42.230Z,4.37
2023-11-03T05:35:09.248Z,3.98
2023-11-03T05:37:35.885Z,5.10
2023-11-03T05:40:05.180Z,4.59
2023-11-03T05:42:32.176Z,5.08
2023-11-03T05:44:58.967Z,5.81
2023-11-03T05:47:25.620Z,4.91
2023-11-03T05:49:52.375Z,4.43
2023-11-03T05:52:19.057Z,5.85
2023-11-03T05:54:45.904Z,5.31
2023-11-03T05:57:12.516Z,5.95
2023-11-03T05:59:39.054Z,5.91
2023-11-03T06:02:05.549Z,5.91
2023-11-03T06:04:32.273Z,5.84
2023-11-03T06:06:59.308Z,5.32
2023-11-03T06:09:25.903Z,5.65
2023-11-03T06:11:52.501Z,5.62
2023-11-03T06:14:19.141Z,4.77
2023-11-03T06:16:45.687Z,5.55
2023-11-03T06:19:13.094Z,5.52
2023-11-03T06:21:39.784Z,5.63
2023-11-03T06:24:06.539Z,5.63
2023-11-03T06:26:33.483Z,4.89
2023-11-03T06:29:00.165Z,5.72
2023-11-03T06:31:26.827Z,4.89
2023-11-03T06:33:53.469Z,4.37
2023-11-03T06:36:20.128Z,3.73
2023-11-03T06:38:46.656Z,4.59
2023-11-03T06:41:13.301Z,5.28
2023-11-03T06:43:46.540Z,4.22
2023-11-03T06:46:15.290Z,5.18
2023-11-03T06:48:41.859Z,5.65
2023-11-03T06:51:12.544Z,4.60
2023-11-03T06:53:39.219Z,5.22
2023-11-03T06:56:06.622Z,4.56
2023-11-03T06:58:35.870Z,5.14
2023-11-03T07:01:02.499Z,5.40
2023-11-03T07:03:29.223Z,5.47
2023-11-03T07:05:55.812Z,5.05
2023-11-03T07:08:22.387Z,4.81
2023-11-03T07:10:48.915Z,3.86
2023-11-03T07:13:15.537Z,4.71
2023-11-03T07:15:44.298Z,4.37
2023-11-03T07:18:11.204Z,5.19
2023-11-03T07:20:37.819Z,5.07
2023-11-03T07:23:06.913Z,5.04
2023-11-03T07:25:33.464Z,4.57
2023-11-03T07:28:00.193Z,5.24
2023-11-03T07:30:26.838Z,5.51
2023-11-03T07:32:53.465Z,4.97
2023-11-03T07:35:20.870Z,4.62
2023-11-03T07:37:47.513Z,4.67
2023-11-03T07:40:15.759Z,5.20
2023-11-03T07:42:42.404Z,5.57
2023-11-03T07:45:09.710Z,6.26
2023-11-03T07:47:36.543Z,6.79
2023-11-03T07:50:03.434Z,6.92
2023-11-03T07:52:30.051Z,5.77
2023-11-03T07:54:56.709Z,5.51
2023-11-03T07:57:23.236Z,5.47
2023-11-03T07:59:49.705Z,5.61
2023-11-03T08:02:16.507Z,4.78
2023-11-03T08:04:43.904Z,5.55
2023-11-03T08:07:10.736Z,5.84
2023-11-03T08:09:37.420Z,5.14
2023-11-03T08:12:04.294Z,5.69
2023-11-03T08:14:30.791Z,5.34
2023-11-03T08:16:57.348Z,5.90
2023-11-03T08:19:24.038Z,5.56
2023-11-03T08:21:51.024Z,5.81
2023-11-03T08:24:17.710Z,6.11
2023-11-03T08:26:44.299Z,5.71
2023-11-03T08:29:12.872Z,5.55
2023-11-03T08:31:40.863Z,6.39
2023-11-03T08:34:10.047Z,5.72
2023-11-03T08:36:36.614Z,5.95
2023-11-03T08:39:03.441Z,5.65
2023-11-03T08:41:30.553Z,5.96
2023-11-03T08:43:57.155Z,4.95
2023-11-03T08:46:23.775Z,6.11
2023-11-03T08:48:50.612Z,6.03
2023-11-03T08:51:18.270Z,5.94
2023-11-03T08:53:45.235Z,6.14
2023-11-03T08:56:15.056Z,6.25
2023-11-03T08:58:42.512Z,5.04
2023-11-03T09:01:11.310Z,6.65
2023-11-03T09:03:38.394Z,6.39
2023-11-03T09:06:09.564Z,5.66
2023-11-03T09:08:37.407Z,5.71
2023-11-03T09:11:05.201Z,6.44
2023-11-03T09:13:31.843Z,7.01
2023-11-03T09:15:58.829Z,7.13
2023-11-03T09:18:27.109Z,6.42
2023-11-03T09:20:53.883Z,6.95
2023-11-03T09:23:20.498Z,6.71
2023-11-03T09:25:47.253Z,7.04
2023-11-03T09:28:13.886Z,7.21
2023-11-03T09:30:40.454Z,6.95
2023-11-03T09:33:07.087Z,7.05
2023-11-03T09:35:34.834Z,7.29
2023-11-03T09:38:01.666Z,6.26
2023-11-03T09:40:28.365Z,6.83
2023-11-03T09:42:55.525Z,7.01
2023-11-03T09:45:27.319Z,7.63
2023-11-03T09:47:54.764Z,6.49
2023-11-03T09:50:22.254Z,6.84
2023-11-03T09:52:50.114Z,7.11
2023-11-03T09:55:24.240Z,7.10
2023-11-03T09:57:56.535Z,6.43
2023-11-03T10:00:24.644Z,7.61
2023-11-03T10:02:51.739Z,6.28
2023-11-03T10:05:19.472Z,5.54
2023-11-03T10:08:02.097Z,7.03
2023-11-03T10:10:35.739Z,7.05
2023-11-03T10:13:06.757Z,7.77
2023-11-03T10:15:33.397Z,6.69
2023-11-03T10:18:00.163Z,7.77
2023-11-03T10:20:26.873Z,7.82
2023-11-03T10:22:53.593Z,7.59
2023-11-03T10:25:20.503Z,7.16
2023-11-03T10:27:51.250Z,6.66
2023-11-03T10:30:19.566Z,8.23
2023-11-03T10:32:46.208Z,7.45
2023-11-03T10:35:14.062Z,7.07
2023-11-03T10:37:41.861Z,7.90
2023-11-03T10:40:14.434Z,7.40
2023-11-03T10:42:49.221Z,8.14
2023-11-03T10:45:17.233Z,7.21
2023-11-03T10:48:12.395Z,8.19
2023-11-03T10:50:46.650Z,7.20
2023-11-03T10:53:58.339Z,7.97
2023-11-03T10:56:38.539Z,8.15
2023-11-03T10:59:13.224Z,7.65
2023-11-03T11:01:47.720Z,7.96
2023-11-03T11:04:27.295Z,8.39
2023-11-03T11:06:57.763Z,8.18
2023-11-03T11:09:38.926Z,8.96
2023-11-03T11:12:06.040Z,7.79
2023-11-03T11:14:37.702Z,7.50
2023-11-03T11:17:08.281Z,6.77
2023-11-03T11:19:40.247Z,8.18
2023-11-03T11:22:09.450Z,8.44
2023-11-03T11:24:39.380Z,6.86
2023-11-03T11:27:25.002Z,8.35
2023-11-03T11:30:02.796Z,6.96
2023-11-03T11:32:29.600Z,8.85
2023-11-03T11:34:57.529Z,8.96
2023-11-03T11:37:27.962Z,8.29
2023-11-03T11:39:58.907Z,8.62
2023-11-03T11:42:31.140Z,8.40
2023-11-03T11:45:00.670Z,7.95
2023-11-03T11:47:30.211Z,8.29
2023-11-03T11:49:57.274Z,9.03
2023-11-03T11:52:27.690Z,9.83
2023-11-03T11:54:59.177Z,8.52
2023-11-03T11:57:27.229Z,9.84
2023-11-03T11:59:55.334Z,9.63
2023-11-03T12:02:24.048Z,10.87
2023-11-03T12:04:59.572Z,11.25
2023-11-03T12:07:30.225Z,10.22
2023-11-03T12:09:57.326Z,10.95
2023-11-03T12:12:24.952Z,10.45
2023-11-03T12:14:52.251Z,12.26
2023-11-03T12:17:23.288Z,11.76
2023-11-03T12:19:51.346Z,11.08
2023-11-03T12:22:26.061Z,11.76
2023-11-03T12:24:56.761Z,12.06
2023-11-03T12:27:24.998Z,9.40
2023-11-03T12:29:54.864Z,10.83
2023-11-03T12:32:21.488Z,12.02
2023-11-03T12:34:48.047Z,10.51
2023-11-03T12:37:14.912Z,11.81
2023-11-03T12:39:58.296Z,10.62
2023-11-03T12:42:25.618Z,10.89
2023-11-03T12:44:57.197Z,11.16
2023-11-03T12:47:37.120Z,11.98
2023-11-03T12:50:24.909Z,10.25
2023-11-03T12:53:05.337Z,10.54
2023-11-03T12:55:37.083Z,10.45
2023-11-03T12:58:11.011Z,9.52
2023-11-03T13:00:38.189Z,9.52
2023-11-03T13:03:05.535Z,9.14
2023-11-03T13:05:33.165Z,9.46
2023-11-03T13:08:02.195Z,8.27
2023-11-03T13:10:32.068Z,9.19
2023-11-03T13:12:59.013Z,9.00
2023-11-03T13:15:25.791Z,9.21
2023-11-03T13:17:54.114Z,9.04
2023-11-03T13:20:21.928Z,8.57
2023-11-03T13:23:00.026Z,9.09
2023-11-03T13:25:28.976Z,9.30
2023-11-03T13:27:56.129Z,9.61
2023-11-03T13:30:23.517Z,9.50
2023-11-03T13:32:52.981Z,9.43
2023-11-03T13:35:20.742Z,9.27
2023-11-03T13:37:47.588Z,9.39
2023-11-03T13:40:17.464Z,9.52
2023-11-03T13:42:44.387Z,8.57
2023-11-03T13:45:11.259Z,9.04
2023-11-03T13:47:42.125Z,8.22
2023-11-03T13:50:18.024Z,9.11
2023-11-03T13:52:48.591Z,8.94
2023-11-03T13:55:16.661Z,8.43
2023-11-03T13:57:43.638Z,9.00
2023-11-03T14:00:16.879Z,8.13
2023-11-03T14:02:43.737Z,7.11
2023-11-03T14:05:12.775Z,8.11
2023-11-03T14:07:40.685Z,7.29
2023-11-03T14:10:10.463Z,7.50
2023-11-03T14:12:39.544Z,8.06
2023-11-03T14:15:08.330Z,7.59
2023-11-03T14:17:35.569Z,7.85
2023-11-03T14:20:04.724Z,8.58
2023-11-03T14:22:31.492Z,8.05
2023-11-03T14:24:58.492Z,8.30
2023-11-03T14:27:25.155Z,8.15
2023-11-03T14:29:53.565Z,7.77
2023-11-03T14:32:20.122Z,8.12
2023-11-03T14:34:46.674Z,8.24
2023-11-03T14:37:13.435Z,8.31
2023-11-03T14:39:42.687Z,8.59
2023-11-03T14:42:09.208Z,8.81
2023-11-03T14:44:37.778Z,8.40
2023-11-03T14:47:04.870Z,8.22
2023-11-03T14:49:31.599Z,7.51
2023-11-03T14:51:58.405Z,8.69
2023-11-03T14:54:25.551Z,7.63
2023-11-03T14:56:53.507Z,8.08
2023-11-03T14:59:20.162Z,7.52
2023-11-03T15:01:46.997Z,8.06
2023-11-03T15:04:13.683Z,7.10
2023-11-03T15:06:40.307Z,8.07
2023-11-03T15:09:06.816Z,7.73
2023-11-03T15:11:33.750Z,7.76
2023-11-03T15:14:00.689Z,6.72
2023-11-03T15:16:30.736Z,6.32
2023-11-03T15:18:58.490Z,6.79
2023-11-03T15:21:25.238Z,7.22
2023-11-03T15:23:51.765Z,6.34
2023-11-03T15:26:19.380Z,6.96
2023-11-03T15:28:46.094Z,5.46
2023-11-03T15:31:13.201Z,5.51
2023-11-03T15:33:39.974Z,6.69
2023-11-03T15:36:08.235Z,5.98
2023-11-03T15:38:35.282Z,6.88
2023-11-03T15:41:01.887Z,6.98
2023-11-03T15:43:28.973Z,6.37
2023-11-03T15:45:55.831Z,6.06
2023-11-03T15:48:22.698Z,6.70
2023-11-03T15:50:52.102Z,6.00
2023-11-03T15:53:19.106Z,5.54
2023-11-03T15:55:51.032Z,5.65
2023-11-03T15:58:20.038Z,6.01
2023-11-03T16:00:48.029Z,6.60
2023-11-03T16:03:17.047Z,6.02
2023-11-03T16:05:44.942Z,6.24
2023-11-03T16:08:12.261Z,7.14
2023-11-03T16:10:41.971Z,6.81
2023-11-03T16:13:09.591Z,6.81
2023-11-03T16:15:38.646Z,6.55
2023-11-03T16:18:05.231Z,5.72
2023-11-03T16:20:31.853Z,5.82
2023-11-03T16:22:58.409Z,6.73
2023-11-03T16:25:24.974Z,5.94
2023-11-03T16:27:52.137Z,5.43
2023-11-03T16:30:22.032Z,6.16
2023-11-03T16:32:49.485Z,5.73
2023-11-03T16:35:16.533Z,5.94
2023-11-03T16:37:43.111Z,6.16
2023-11-03T16:40:11.997Z,6.99
2023-11-03T16:42:39.714Z,6.79
2023-11-03T16:45:10.572Z,7.01
2023-11-03T16:47:37.166Z,6.39
2023-11-03T16:50:04.812Z,6.91
2023-11-03T16:52:36.183Z,6.06
2023-11-03T16:55:03.098Z,5.35
2023-11-03T16:57:30.798Z,5.65
2023-11-03T16:59:57.317Z,5.70
2023-11-03T17:02:23.853Z,5.99
2023-11-03T17:04:51.354Z,6.11
2023-11-03T17:07:17.975Z,5.58
2023-11-03T17:09:44.572Z,5.82
2023-11-03T17:12:11.144Z,6.13
2023-11-03T17:14:37.799Z,6.29
2023-11-03T17:17:04.539Z,6.60
2023-11-03T17:19:31.599Z,5.88
2023-11-03T17:21:58.117Z,4.87
2023-11-03T17:24:24.616Z,6.49
2023-11-03T17:26:51.886Z,5.13
2023-11-03T17:29:19.580Z,5.59
2023-11-03T17:31:46.247Z,6.14
2023-11-03T17:34:12.962Z,5.16
2023-11-03T17:36:39.570Z,5.55
2023-11-03T17:39:10.217Z,5.15
2023-11-03T17:41:37.489Z,5.57
2023-11-03T17:44:04.318Z,5.79
2023-11-03T17:46:31.390Z,5.43
2023-11-03T17:48:57.999Z,5.96
2023-11-03T17:51:24.523Z,5.31
2023-11-03T17:53:51.040Z,5.91
2023-11-03T17:56:18.071Z,5.33
2023-11-03T17:58:45.527Z,6.28
2023-11-03T18:01:12.705Z,5.89
2023-11-03T18:03:39.570Z,5.33
2023-11-03T18:06:06.195Z,5.09
2023-11-03T18:08:32.977Z,4.29
2023-11-03T18:11:00.905Z,4.80
2023-11-03T18:13:27.502Z,5.12
2023-11-03T18:15:54.102Z,4.37
2023-11-03T18:18:22.317Z,4.72
2023-11-03T18:20:50.130Z,5.28
2023-11-03T18:23:16.611Z,5.83
2023-11-03T18:25:43.370Z,5.09
2023-11-03T18:28:12.463Z,5.68
2023-11-03T18:30:39.211Z,5.67
2023-11-03T18:33:06.486Z,4.47
2023-11-03T18:35:33.201Z,5.87
2023-11-03T18:38:00.565Z,5.57
2023-11-03T18:40:30.286Z,4.81
2023-11-03T18:42:58.161Z,4.35
2023-11-03T18:45:26.908Z,5.36
2023-11-03T18:47:54.044Z,4.95
2023-11-03T18:52:52.689Z,5.10
2023-11-03T18:56:14.103Z,5.10
2023-11-03T19:04:41.549Z,5.10
2023-11-03T19:07:28.288Z,5.58
2023-11-03T19:08:39.372Z,5.18
2023-11-03T19:11:06.010Z,5.44
2023-11-03T19:13:32.561Z,5.89
2023-11-03T19:15:59.170Z,4.22
2023-11-03T19:18:25.977Z,5.33
2023-11-03T19:20:52.509Z,5.81
2023-11-03T19:23:19.099Z,4.47
2023-11-03T19:25:45.771Z,5.32
2023-11-03T19:28:15.677Z,4.86
2023-11-03T19:30:44.534Z,5.03
2023-11-03T19:33:12.528Z,5.00
2023-11-03T19:35:44.796Z,4.01
2023-11-03T19:38:11.531Z,5.63
2023-11-03T19:40:39.006Z,5.30
2023-11-03T19:43:06.116Z,6.16
2023-11-03T19:45:33.158Z,4.92
2023-11-03T19:47:59.970Z,5.21
2023-11-03T19:50:26.567Z,5.64
2023-11-03T19:52:53.258Z,5.09
2023-11-03T19:55:19.883Z,5.66
2023-11-03T19:57:46.539Z,6.16
2023-11-03T20:00:14.293Z,6.14
2023-11-03T20:02:41.002Z,6.27
2023-11-03T20:05:07.832Z,6.02
2023-11-03T20:07:34.381Z,6.08
2023-11-03T20:10:01.183Z,5.05
2023-11-03T20:12:27.901Z,4.89
2023-11-03T20:14:54.439Z,4.95
2023-11-03T20:17:21.470Z,4.07
2023-11-03T20:19:48.841Z,4.81
2023-11-03T20:22:18.641Z,5.35
2023-11-03T20:24:45.224Z,4.66
2023-11-03T20:27:13.583Z,4.98
2023-11-03T20:29:42.601Z,5.18
2023-11-03T20:32:09.334Z,5.08
2023-11-03T20:34:36.300Z,5.23
2023-11-03T20:37:02.890Z,5.15
2023-11-03T20:39:29.459Z,5.00
2023-11-03T20:41:56.037Z,5.22
2023-11-03T20:44:22.776Z,4.63
2023-11-03T20:46:49.556Z,4.24
2023-11-03T20:49:17.690Z,4.29
2023-11-03T20:51:45.058Z,4.86
2023-11-03T20:54:14.332Z,5.30
2023-11-03T20:56:46.364Z,3.65
2023-11-03T20:59:12.902Z,5.76
2023-11-03T21:01:39.632Z,5.72
2023-11-03T21:04:06.964Z,6.21
2023-11-03T21:06:36.718Z,4.14
2023-11-03T21:09:03.631Z,5.20
2023-11-03T21:11:30.208Z,3.85
2023-11-03T21:13:56.701Z,5.27
2023-11-03T21:16:23.673Z,5.16
2023-11-03T21:18:50.420Z,5.32
2023-11-03T21:21:17.241Z,5.95
2023-11-03T21:23:46.254Z,6.20
2023-11-03T21:26:19.558Z,5.54
2023-11-03T21:28:46.092Z,5.98
2023-11-03T21:31:13.724Z,6.29
2023-11-03T21:33:41.454Z,6.32
2023-11-03T21:36:08.603Z,5.53
2023-11-03T21:38:35.171Z,4.80
2023-11-03T21:41:05.395Z,6.31
2023-11-03T21:43:32.177Z,5.53
2023-11-03T21:45:59.299Z,5.53
2023-11-03T21:48:26.624Z,5.95
2023-11-03T21:50:54.011Z,6.28
2023-11-03T21:53:20.530Z,5.93
2023-11-03T21:55:47.224Z,4.85
2023-11-03T21:58:14.007Z,4.43
2023-11-03T22:00:40.669Z,4.67
2023-11-03T22:03:07.351Z,5.97
2023-11-03T22:05:34.082Z,5.37
2023-11-03T22:08:00.692Z,6.26
2023-11-03T22:10:27.257Z,6.57
2023-11-03T22:12:53.834Z,6.66
2023-11-03T22:15:21.259Z,6.66
2023-11-03T22:17:53.751Z,6.55
2023-11-03T22:20:24.811Z,5.74
2023-11-03T22:22:51.379Z,5.60
2023-11-03T22:25:18.045Z,6.38
2023-11-03T22:27:45.371Z,5.98
2023-11-03T22:30:12.679Z,5.61
2023-11-03T22:32:39.292Z,5.74
2023-11-03T22:35:05.992Z,6.40
2023-11-03T22:37:32.844Z,6.32
2023-11-03T22:39:59.779Z,6.60
2023-11-03T22:42:26.364Z,6.59
2023-11-03T22:44:52.929Z,5.29
2023-11-03T22:47:19.388Z,6.21
2023-11-03T22:49:45.896Z,4.74
2023-11-03T22:52:12.676Z,5.76
2023-11-03T22:54:39.152Z,6.15
2023-11-03T22:57:05.711Z,5.89
2023-11-03T22:59:32.336Z,6.02
2023-11-03T23:01:58.906Z,5.92
2023-11-03T23:04:27.753Z,4.17
2023-11-03T23:06:59.358Z,5.16
2023-11-03T23:09:26.501Z,5.13
2023-11-03T23:11:53.206Z,4.86
2023-11-03T23:14:19.839Z,4.89
2023-11-03T23:16:46.328Z,5.94
2023-11-03T23:19:12.997Z,5.92
2023-11-03T23:21:39.697Z,4.52
2023-11-03T23:24:06.754Z,4.95
2023-11-03T23:26:33.292Z,4.66
2023-11-03T23:28:59.819Z,5.77
2023-11-03T23:31:26.340Z,5.70
2023-11-03T23:33:53.488Z,5.07
2023-11-03T23:36:23.519Z,4.28
2023-11-03T23:38:50.232Z,4.38
2023-11-03T23:41:16.810Z,4.96
2023-11-03T23:43:43.402Z,3.96
2023-11-03T23:46:09.969Z,5.42
2023-11-03T23:48:36.752Z,5.11
2023-11-03T23:51:03.529Z,5.45
2023-11-03T23:53:30.064Z,4.98
2023-11-03T23:55:56.726Z,4.22
2023-11-03T23:58:23.313Z,4.67
